Aviation Digital Data Service (ADDS)

Output produced by METARs form (1159 UTC 26 March 2019)
found at http://www.aviationweather.gov/metar/data/
 
Forecast for: ZWWW (URUM-QI/DIWOPU , CN)
Text: TAF ZWWW 260901Z 2612/2712 36004MPS 9999 FEW040 TX16/2709Z TN07/2623Z
Forecast period: 1200 to 1400 UTC 26 March 2019
Forecast type: FROM: standard forecast or significant change
Winds: from the N (360 degrees) at 9 MPH (8 knots; 4.1 m/s)
Visibility: 6 or more miles 10+ km)
Ceiling: at least 12,000 feet AGL
Clouds: few clouds at 4000 feet AGL
Weather: no significant weather forecast for this period
Text: BECMG 2614/2615 18004MPS
Forecast period: 1400 UTC 26 March 2019 to 0300 UTC 27 March 2019
Forecast type: BECOMING: Conditions expected to become as follows by 1500 UTC 26 March 2019
Winds: from the S (180 degrees) at 9 MPH (8 knots; 4.1 m/s)
Visibility: 6 or more miles 10+ km)
Ceiling: at least 12,000 feet AGL
Clouds: few clouds at 4000 feet AGL
Weather: no significant weather forecast for this period
Text: BECMG 2703/2704 36004MPS
Forecast period: 0300 to 1200 UTC 27 March 2019
Forecast type: BECOMING: Conditions expected to become as follows by 0400 UTC 27 March 2019
Winds: from the N (360 degrees) at 9 MPH (8 knots; 4.1 m/s)
Visibility: 6 or more miles 10+ km)
Ceiling: at least 12,000 feet AGL
Clouds: few clouds at 4000 feet AGL
Weather: no significant weather forecast for this period